Time;durP1;ratioP1;P1;durP2;ratioP2;P2;SDS_P1;SDS_P2;PMS_P1;PMS_P2;Temp;Humidity;BMP_temperature;BMP_pressure;BME280_temperature;BME280_humidity;BME280_pressure;Samples;Min_cycle;Max_cycle;Signal;HPM_P1;HPM_P2
2024/03/24 00:00:09;;;;;;;1.03;0.83;;;4.30;99.90;4.10;99511.00;;;;4882654;28;88148;-64
2024/03/24 00:02:36;;;;;;;1.70;1.53;;;4.30;99.90;4.10;99515.00;;;;4881293;28;88466;-64
2024/03/24 00:05:01;;;;;;;2.73;1.57;;;4.30;99.90;4.10;99512.00;;;;4880527;28;88046;-64
2024/03/24 00:07:27;;;;;;;3.33;1.13;;;4.30;99.90;4.10;99509.00;;;;4881757;28;87909;-63
2024/03/24 00:09:53;;;;;;;0.80;0.80;;;5.00;99.90;4.10;99512.00;;;;4880003;28;108827;-63
2024/03/24 00:12:18;;;;;;;1.20;1.10;;;4.90;99.90;4.10;99504.00;;;;4896211;28;91784;-63
2024/03/24 00:14:44;;;;;;;2.00;1.30;;;4.30;99.90;4.20;99513.00;;;;4883480;28;117395;-62
2024/03/24 00:17:10;;;;;;;0.97;0.63;;;4.30;99.90;4.20;99505.00;;;;4878657;28;88972;-64
2024/03/24 00:19:36;;;;;;;1.40;1.07;;;4.30;99.90;4.10;99506.00;;;;4878711;28;108786;-64
2024/03/24 00:22:01;;;;;;;1.13;1.00;;;4.40;99.90;4.10;99507.00;;;;4880918;28;103727;-62
2024/03/24 00:24:27;;;;;;;0.67;0.67;;;4.30;99.90;4.10;99502.00;;;;4876633;28;88499;-63
2024/03/24 00:26:53;;;;;;;1.13;0.83;;;4.40;99.90;4.10;99503.00;;;;4876403;28;110559;-62
2024/03/24 00:29:18;;;;;;;3.03;1.47;;;4.50;99.90;4.10;99492.00;;;;4880683;28;108402;-63
2024/03/24 00:31:44;;;;;;;1.27;1.17;;;4.40;99.90;4.10;99492.00;;;;4868840;28;112875;-62
2024/03/24 00:34:09;;;;;;;1.50;0.90;;;4.30;99.90;4.10;99489.00;;;;4878686;28;115034;-63
2024/03/24 00:36:35;;;;;;;1.77;1.00;;;4.40;99.90;4.10;99487.00;;;;4880240;28;107396;-64
2024/03/24 00:39:01;;;;;;;2.23;1.10;;;4.30;99.90;4.10;99488.00;;;;4883884;28;108267;-64
2024/03/24 00:41:27;;;;;;;1.57;1.37;;;5.10;99.90;4.10;99490.00;;;;4882365;28;118611;-62
2024/03/24 00:43:53;;;;;;;2.63;1.07;;;4.30;99.90;4.10;99493.00;;;;4888142;28;88861;-63
2024/03/24 00:46:18;;;;;;;3.07;2.07;;;4.40;99.90;4.00;99486.00;;;;4887458;28;110063;-63
2024/03/24 00:48:44;;;;;;;2.03;1.40;;;4.30;99.90;4.00;99479.00;;;;4882015;28;108374;-63
2024/03/24 00:51:10;;;;;;;4.87;1.20;;;4.20;99.90;4.00;99483.00;;;;4884152;28;87911;-64
2024/03/24 00:53:35;;;;;;;1.83;1.30;;;5.20;99.90;3.90;99483.00;;;;4883968;28;115271;-62
2024/03/24 00:56:01;;;;;;;1.10;1.00;;;4.20;99.90;3.90;99469.00;;;;4882062;28;110122;-63
2024/03/24 00:58:27;;;;;;;2.20;1.13;;;4.10;99.90;3.80;99465.00;;;;4884856;28;109015;-62
2024/03/24 01:00:52;;;;;;;3.00;1.33;;;4.10;99.90;3.80;99465.00;;;;4878242;28;114897;-64
2024/03/24 01:03:18;;;;;;;2.00;1.20;;;4.30;99.90;3.70;99474.00;;;;4875221;28;100870;-63
2024/03/24 01:05:46;;;;;;;1.40;1.30;;;3.90;99.90;3.70;99468.00;;;;4877293;28;110573;-64
2024/03/24 01:08:12;;;;;;;1.67;1.47;;;4.20;99.90;3.70;99466.00;;;;4883492;28;87778;-64
2024/03/24 01:10:38;;;;;;;1.07;1.07;;;3.90;99.90;3.60;99467.00;;;;4882048;28;117887;-65
2024/03/24 01:13:03;;;;;;;2.10;1.43;;;3.80;99.90;3.70;99463.00;;;;4881719;28;116817;-63
2024/03/24 01:15:29;;;;;;;1.60;1.00;;;3.80;99.90;3.70;99458.00;;;;4882849;28;92391;-63
2024/03/24 01:17:55;;;;;;;1.23;1.03;;;3.80;99.90;3.70;99456.00;;;;4885132;28;88080;-64
2024/03/24 01:20:21;;;;;;;2.90;1.10;;;3.80;99.90;3.70;99460.00;;;;4888565;28;115944;-63
2024/03/24 01:22:46;;;;;;;1.47;1.07;;;3.90;99.90;3.70;99444.00;;;;4884821;28;117469;-62
2024/03/24 01:25:12;;;;;;;3.43;1.30;;;3.90;99.90;3.70;99453.00;;;;4885740;28;109818;-63
2024/03/24 01:27:38;;;;;;;1.83;1.03;;;3.90;99.90;3.70;99444.00;;;;4881488;28;108379;-63
2024/03/24 01:30:04;;;;;;;1.57;1.30;;;3.90;99.90;3.70;99433.00;;;;4882072;28;118639;-63
2024/03/24 01:32:30;;;;;;;2.20;0.67;;;3.90;99.90;3.70;99437.00;;;;4880565;28;108219;-63
2024/03/24 01:34:56;;;;;;;1.00;0.90;;;4.70;99.90;3.70;99434.00;;;;4879898;28;87745;-65
2024/03/24 01:37:21;;;;;;;1.63;1.17;;;3.30;99.90;3.60;99430.00;;;;4882617;28;107452;-62
2024/03/24 01:39:48;;;;;;;0.80;0.80;;;3.80;99.90;3.60;99435.00;;;;4881686;28;118125;-62
2024/03/24 01:42:15;;;;;;;1.77;1.20;;;4.90;99.90;3.50;99419.00;;;;4881972;28;88183;-65
2024/03/24 01:44:41;;;;;;;1.00;1.00;;;3.70;99.90;3.40;99417.00;;;;4882046;28;90014;-65
2024/03/24 01:47:09;;;;;;;1.87;0.77;;;3.60;99.90;3.40;99420.00;;;;4882970;28;87530;-64
2024/03/24 01:49:35;;;;;;;2.80;1.43;;;3.70;99.90;3.30;99413.00;;;;4885319;28;89221;-64
2024/03/24 01:52:08;;;;;;;1.83;1.40;;;3.50;99.90;3.20;99428.00;;;;4888240;28;108375;-62
2024/03/24 01:54:37;;;;;;;2.87;1.37;;;3.50;99.90;3.20;99423.00;;;;4884686;28;90886;-63
2024/03/24 01:57:03;;;;;;;0.80;0.77;;;3.40;99.90;3.10;99424.00;;;;4886221;28;87909;-64
2024/03/24 01:59:29;;;;;;;2.23;1.20;;;3.30;99.90;3.00;99425.00;;;;4883569;28;89060;-63
2024/03/24 02:01:56;;;;;;;1.07;0.77;;;3.90;99.90;2.90;99413.00;;;;4876288;28;117668;-64
2024/03/24 02:04:21;;;;;;;2.13;1.30;;;3.80;99.90;2.90;99425.00;;;;4882975;28;87882;-65
2024/03/24 02:06:47;;;;;;;2.17;1.60;;;3.10;99.90;2.80;99419.00;;;;4879392;28;95239;-63
2024/03/24 02:09:13;;;;;;;2.47;2.07;;;3.10;99.90;2.80;99416.00;;;;4882568;28;88142;-65
2024/03/24 02:11:38;;;;;;;2.50;1.20;;;3.10;99.90;2.70;99413.00;;;;4881910;28;115676;-64
2024/03/24 02:14:04;;;;;;;2.13;1.17;;;3.00;99.90;2.70;99414.00;;;;4881867;28;91101;-63
2024/03/24 02:16:30;;;;;;;2.30;1.30;;;3.00;99.90;2.60;99406.00;;;;4884819;28;109206;-63
2024/03/24 02:18:55;;;;;;;2.30;1.37;;;3.00;99.90;2.60;99400.00;;;;4880463;28;118270;-63
2024/03/24 02:21:21;;;;;;;2.33;1.33;;;2.90;99.90;2.60;99412.00;;;;4880565;28;88992;-66
2024/03/24 02:23:50;;;;;;;4.63;1.60;;;2.90;99.90;2.50;99395.00;;;;4883313;28;87865;-65
2024/03/24 02:26:18;;;;;;;1.13;1.03;;;2.70;99.90;2.50;99398.00;;;;4881404;28;87910;-64
2024/03/24 02:28:44;;;;;;;2.40;1.50;;;2.80;99.90;2.40;99396.00;;;;4882777;28;88334;-65
2024/03/24 02:31:11;;;;;;;3.07;1.40;;;2.70;99.90;2.40;99394.00;;;;4878141;28;88979;-64
2024/03/24 02:33:40;;;;;;;2.03;1.67;;;2.70;99.90;2.40;99403.00;;;;4876429;28;87814;-64
2024/03/24 02:36:06;;;;;;;3.67;1.60;;;2.60;99.90;2.30;99398.00;;;;4878993;28;102324;-64
2024/03/24 02:38:31;;;;;;;1.47;1.17;;;2.60;99.90;2.30;99395.00;;;;4879757;28;98070;-64
2024/03/24 02:40:57;;;;;;;1.20;1.07;;;2.60;99.90;2.30;99391.00;;;;4882926;28;115812;-64
2024/03/24 02:43:23;;;;;;;3.90;1.47;;;2.60;99.90;2.30;99390.00;;;;4877354;28;110528;-65
2024/03/24 02:45:55;;;;;;;3.87;1.50;;;2.50;99.90;2.30;99384.00;;;;4883527;28;107841;-65
2024/03/24 02:48:21;;;;;;;1.43;1.33;;;2.50;99.90;2.30;99383.00;;;;4875359;28;92588;-66
2024/03/24 02:50:47;;;;;;;1.27;1.10;;;2.40;99.90;2.20;99386.00;;;;4879069;28;87967;-64
2024/03/24 02:53:13;;;;;;;1.50;1.27;;;2.50;99.90;2.20;99381.00;;;;4878817;28;87932;-64
2024/03/24 02:55:48;;;;;;;1.30;1.20;;;2.50;99.90;2.20;99374.00;;;;4879636;28;87618;-65
2024/03/24 02:58:14;;;;;;;1.77;1.00;;;2.50;99.90;2.20;99385.00;;;;4881749;28;93192;-64
2024/03/24 03:00:40;;;;;;;1.33;1.13;;;2.40;99.90;2.20;99379.00;;;;4884366;28;95587;-66
2024/03/24 03:03:06;;;;;;;4.07;1.63;;;2.40;99.90;2.10;99380.00;;;;4880716;28;88129;-65
2024/03/24 03:05:33;;;;;;;2.27;1.03;;;2.40;99.90;2.10;99382.00;;;;4881096;28;87613;-64
2024/03/24 03:07:59;;;;;;;4.20;1.17;;;2.00;99.90;2.20;99373.00;;;;4878558;28;89749;-64
2024/03/24 03:10:24;;;;;;;1.17;1.07;;;2.40;99.90;2.20;99386.00;;;;4878776;28;108932;-64
2024/03/24 03:12:50;;;;;;;1.40;1.07;;;2.40;99.90;2.10;99377.00;;;;4881026;28;96520;-65
2024/03/24 03:15:17;;;;;;;2.27;0.97;;;2.40;99.90;2.10;99374.00;;;;4881154;28;108676;-64
2024/03/24 03:17:42;;;;;;;1.37;1.20;;;2.40;99.90;2.10;99381.00;;;;4880179;28;89930;-64
2024/03/24 03:20:14;;;;;;;3.17;1.10;;;2.40;99.90;2.10;99382.00;;;;4881262;28;115877;-64
2024/03/24 03:22:42;;;;;;;1.97;1.10;;;2.30;99.90;2.00;99376.00;;;;4881854;28;88156;-63
2024/03/24 03:25:08;;;;;;;1.97;1.30;;;2.30;99.90;2.00;99369.00;;;;4881277;28;107796;-65
2024/03/24 03:27:34;;;;;;;2.33;1.30;;;2.30;99.90;2.00;99375.00;;;;4878848;28;104392;-64
2024/03/24 03:30:00;;;;;;;2.60;1.43;;;2.20;99.90;1.90;99376.00;;;;4875388;28;117308;-66
2024/03/24 03:32:26;;;;;;;1.47;1.30;;;2.10;99.90;1.80;99376.00;;;;4877060;28;96316;-66
2024/03/24 03:34:53;;;;;;;3.70;1.53;;;2.10;99.90;1.80;99374.00;;;;4874638;28;107575;-65
2024/03/24 03:37:20;;;;;;;2.33;1.47;;;2.10;99.90;1.80;99371.00;;;;4874455;28;88830;-65
2024/03/24 03:39:46;;;;;;;1.70;1.60;;;2.40;99.90;1.70;99363.00;;;;4876785;28;88047;-64
2024/03/24 03:42:13;;;;;;;1.47;1.20;;;2.10;99.90;1.70;99360.00;;;;4878278;28;88836;-64
2024/03/24 03:44:40;;;;;;;2.53;1.30;;;1.90;99.90;1.70;99371.00;;;;4877154;28;88397;-65
2024/03/24 03:47:06;;;;;;;2.40;1.60;;;1.90;99.90;1.60;99360.00;;;;4879491;28;88519;-64
2024/03/24 03:49:32;;;;;;;2.33;1.50;;;1.90;99.90;1.60;99357.00;;;;4881804;28;111764;-64
2024/03/24 03:51:57;;;;;;;2.40;1.30;;;3.30;99.90;1.60;99361.00;;;;4879291;28;87726;-64
2024/03/24 03:54:24;;;;;;;1.40;1.30;;;1.80;99.90;1.50;99355.00;;;;4877112;28;109467;-64
2024/03/24 03:56:49;;;;;;;1.73;0.67;;;1.80;99.90;1.50;99362.00;;;;4880402;28;89449;-64
2024/03/24 03:59:16;;;;;;;2.03;1.60;;;1.80;99.90;1.50;99364.00;;;;4878211;28;88242;-66
2024/03/24 04:01:41;;;;;;;1.10;1.10;;;1.90;99.90;1.50;99361.00;;;;4883821;28;87849;-65
2024/03/24 04:04:11;;;;;;;3.93;1.67;;;1.80;99.90;1.50;99361.00;;;;4881265;28;88123;-63
2024/03/24 04:06:36;;;;;;;1.23;0.97;;;1.80;99.90;1.50;99347.00;;;;4879656;28;88573;-64
2024/03/24 04:09:02;;;;;;;1.53;1.20;;;1.90;99.90;1.50;99355.00;;;;4878433;28;106026;-63
2024/03/24 04:11:29;;;;;;;1.37;1.27;;;2.80;99.90;1.40;99346.00;;;;4886641;28;87607;-64
2024/03/24 04:13:54;;;;;;;1.37;1.10;;;1.70;99.90;1.40;99354.00;;;;4878501;28;87253;-63
2024/03/24 04:16:20;;;;;;;1.73;1.20;;;1.60;99.90;1.40;99352.00;;;;4878148;28;105342;-63
2024/03/24 04:18:47;;;;;;;2.63;1.57;;;2.40;99.90;1.40;99353.00;;;;4877373;28;88506;-64
2024/03/24 04:21:14;;;;;;;1.93;1.30;;;1.70;99.90;1.40;99346.00;;;;4877493;28;92710;-64
2024/03/24 04:23:39;;;;;;;2.33;1.60;;;1.70;99.90;1.40;99342.00;;;;4877621;28;100622;-63
2024/03/24 04:26:05;;;;;;;1.63;1.27;;;1.70;99.90;1.40;99334.00;;;;4876688;28;118079;-63
2024/03/24 04:28:31;;;;;;;1.73;1.63;;;1.80;99.90;1.40;99335.00;;;;4869850;28;91026;-65
2024/03/24 04:30:58;;;;;;;2.83;1.43;;;1.50;99.90;1.40;99334.00;;;;4878368;28;87523;-64
2024/03/24 04:33:25;;;;;;;2.53;1.40;;;1.70;99.90;1.30;99328.00;;;;4884816;28;88256;-65
2024/03/24 04:35:51;;;;;;;0.90;0.90;;;1.60;99.90;1.30;99323.00;;;;4879010;28;88510;-64
2024/03/24 04:38:17;;;;;;;1.67;1.30;;;2.00;99.90;1.30;99315.00;;;;4881632;28;118491;-64
2024/03/24 04:40:44;;;;;;;1.70;1.00;;;1.60;99.90;1.30;99320.00;;;;4884507;28;100557;-65
2024/03/24 04:43:12;;;;;;;1.67;0.93;;;1.60;99.90;1.30;99313.00;;;;4870440;28;87632;-63
2024/03/24 04:45:39;;;;;;;1.80;1.20;;;1.60;99.90;1.30;99313.00;;;;4880788;28;88700;-64
2024/03/24 04:48:06;;;;;;;1.37;1.10;;;1.60;99.90;1.30;99317.00;;;;4881317;28;89346;-65
2024/03/24 04:50:31;;;;;;;0.80;0.70;;;1.60;99.90;1.20;99311.00;;;;4877973;28;87994;-64
2024/03/24 04:52:58;;;;;;;1.60;1.50;;;1.60;99.90;1.20;99318.00;;;;4877830;28;89197;-65
2024/03/24 04:55:25;;;;;;;4.70;1.50;;;0.30;99.90;1.20;99316.00;;;;4876733;28;88924;-65
2024/03/24 04:57:51;;;;;;;1.47;1.20;;;0.70;99.90;1.20;99313.00;;;;4882406;28;88462;-65
2024/03/24 05:00:18;;;;;;;1.37;1.13;;;1.50;99.90;1.10;99312.00;;;;4883988;28;88033;-66
2024/03/24 05:02:44;;;;;;;2.53;1.43;;;1.50;99.90;1.10;99311.00;;;;4878820;28;87274;-65
2024/03/24 05:05:10;;;;;;;4.33;1.50;;;1.40;99.90;1.10;99311.00;;;;4878026;28;95900;-65
2024/03/24 05:07:36;;;;;;;2.97;1.97;;;1.50;99.90;1.10;99305.00;;;;4879463;28;88082;-64
2024/03/24 05:10:02;;;;;;;4.53;3.43;;;1.50;99.90;1.20;99293.00;;;;4878751;28;96126;-64
2024/03/24 05:12:28;;;;;;;2.67;1.97;;;1.50;99.90;1.20;99289.00;;;;4879120;28;87789;-64
2024/03/24 05:14:53;;;;;;;3.30;2.93;;;1.50;99.90;1.20;99289.00;;;;4878044;28;116467;-64
2024/03/24 05:17:19;;;;;;;2.83;2.10;;;1.60;99.90;1.20;99292.00;;;;4876997;28;87845;-64
2024/03/24 05:19:45;;;;;;;3.63;2.83;;;1.50;99.90;1.30;99294.00;;;;4881764;28;109391;-64
2024/03/24 05:22:10;;;;;;;5.47;3.77;;;1.60;99.90;1.30;99290.00;;;;4881852;28;99702;-65
2024/03/24 05:24:36;;;;;;;2.87;2.57;;;1.60;99.90;1.40;99294.00;;;;4882279;28;89462;-64
2024/03/24 05:27:04;;;;;;;3.50;2.40;;;1.60;99.90;1.40;99290.00;;;;4879987;28;117284;-65
2024/03/24 05:29:31;;;;;;;3.60;2.87;;;1.70;99.90;1.50;99298.00;;;;4881351;28;87957;-64
2024/03/24 05:31:59;;;;;;;3.13;2.57;;;1.70;99.90;1.50;99289.00;;;;4882516;28;87878;-64
2024/03/24 05:34:26;;;;;;;7.37;5.77;;;2.70;99.90;1.60;99293.00;;;;4878753;28;89881;-64
2024/03/24 05:36:52;;;;;;;7.93;3.73;;;1.90;99.90;1.70;99293.00;;;;4881609;28;89648;-64
2024/03/24 05:39:18;;;;;;;6.57;3.90;;;2.60;99.90;1.80;99288.00;;;;4882436;28;102807;-64
2024/03/24 05:41:49;;;;;;;9.00;4.13;;;2.00;99.90;1.80;99280.00;;;;4882672;28;88014;-64
2024/03/24 05:44:15;;;;;;;3.23;3.00;;;2.10;99.90;1.90;99289.00;;;;4883660;28;95170;-64
2024/03/24 05:46:42;;;;;;;2.30;2.10;;;2.10;99.90;2.00;99287.00;;;;4888938;28;107397;-63
2024/03/24 05:49:11;;;;;;;2.80;2.23;;;2.30;99.90;2.10;99286.00;;;;4887890;28;90531;-65
2024/03/24 05:51:37;;;;;;;3.07;2.03;;;2.40;99.90;2.30;99279.00;;;;4890913;28;87426;-64
2024/03/24 05:54:04;;;;;;;1.73;1.47;;;2.40;99.90;2.30;99280.00;;;;4883203;28;106018;-65
2024/03/24 05:56:30;;;;;;;2.57;2.37;;;2.60;99.90;2.50;99275.00;;;;4880188;28;88300;-65
2024/03/24 05:58:55;;;;;;;2.67;1.07;;;2.60;99.90;2.60;99275.00;;;;4859911;28;109288;-65
2024/03/24 06:01:23;;;;;;;1.37;1.27;;;2.90;99.90;2.80;99271.00;;;;4876427;28;92886;-63
2024/03/24 06:03:49;;;;;;;1.50;1.40;;;2.90;99.90;3.00;99266.00;;;;4880833;28;88657;-65
2024/03/24 06:06:18;;;;;;;1.33;1.23;;;3.80;99.90;3.20;99257.00;;;;4881693;28;88149;-64
2024/03/24 06:08:43;;;;;;;2.17;1.53;;;3.30;99.90;3.40;99265.00;;;;4883226;28;87888;-64
2024/03/24 06:11:09;;;;;;;2.00;1.30;;;4.10;99.90;3.60;99258.00;;;;4887057;28;96163;-64
2024/03/24 06:13:38;;;;;;;1.80;1.40;;;3.70;99.90;3.90;99260.00;;;;4888860;28;88127;-64
2024/03/24 06:16:05;;;;;;;2.97;1.50;;;4.80;99.90;4.20;99270.00;;;;4879448;28;90153;-64
2024/03/24 06:18:31;;;;;;;2.83;1.13;;;4.30;99.90;4.40;99281.00;;;;4882772;28;102078;-65
2024/03/24 06:20:57;;;;;;;1.43;1.33;;;4.40;99.90;4.60;99273.00;;;;4884322;28;108218;-64
2024/03/24 06:23:23;;;;;;;2.07;1.87;;;4.60;99.90;4.80;99264.00;;;;4880906;28;89493;-65
2024/03/24 06:25:48;;;;;;;3.10;1.40;;;5.00;99.90;5.00;99266.00;;;;4877268;28;88166;-64
2024/03/24 06:28:14;;;;;;;1.67;1.30;;;5.10;99.90;5.10;99258.00;;;;4885668;28;87812;-64
2024/03/24 06:30:41;;;;;;;3.73;1.47;;;5.30;99.90;5.10;99282.00;;;;4883050;28;87881;-65
2024/03/24 06:33:07;;;;;;;2.13;1.93;;;6.10;99.90;5.10;99254.00;;;;4882790;28;108074;-63
2024/03/24 06:35:32;;;;;;;2.70;1.47;;;5.60;99.90;5.10;99272.00;;;;4882313;28;108142;-64
2024/03/24 06:37:58;;;;;;;1.97;1.77;;;5.40;99.90;5.00;99262.00;;;;4885032;28;87740;-64
2024/03/24 06:40:25;;;;;;;1.27;1.17;;;5.90;99.90;4.90;99260.00;;;;4882125;28;87027;-64
2024/03/24 06:43:00;;;;;;;2.03;1.30;;;5.20;99.90;4.90;99261.00;;;;4884821;28;88751;-64
2024/03/24 06:45:30;;;;;;;2.03;1.63;;;5.60;99.90;5.10;99266.00;;;;4879489;28;88092;-64
2024/03/24 06:48:00;;;;;;;2.83;1.03;;;5.20;99.90;5.20;99268.00;;;;4880810;28;88742;-63
2024/03/24 06:50:26;;;;;;;1.60;1.43;;;5.40;99.90;5.30;99259.00;;;;4878549;28;87746;-63
2024/03/24 06:52:52;;;;;;;1.10;1.00;;;5.80;99.90;5.50;99258.00;;;;4875889;28;88638;-64
2024/03/24 06:55:19;;;;;;;1.50;1.40;;;5.60;99.90;5.60;99256.00;;;;4879396;28;87740;-64
2024/03/24 06:57:45;;;;;;;1.47;1.37;;;5.80;99.90;5.80;99266.00;;;;4878138;28;88028;-64
2024/03/24 07:00:13;;;;;;;4.73;1.97;;;6.60;99.90;6.00;99257.00;;;;4877337;28;87557;-65
2024/03/24 07:02:39;;;;;;;1.57;1.40;;;4.60;99.90;6.20;99258.00;;;;4878247;28;102884;-65
2024/03/24 07:05:05;;;;;;;0.90;0.90;;;6.30;99.90;6.40;99256.00;;;;4877758;28;109303;-66
2024/03/24 07:07:31;;;;;;;1.93;1.33;;;6.50;99.90;6.60;99248.00;;;;4874807;28;88083;-64
2024/03/24 07:09:57;;;;;;;2.00;1.10;;;6.80;99.90;6.80;99266.00;;;;4874433;28;87906;-64
2024/03/24 07:12:22;;;;;;;4.43;1.37;;;7.00;99.90;7.00;99265.00;;;;4873701;28;118767;-66
2024/03/24 07:14:49;;;;;;;2.60;1.07;;;7.40;99.90;7.20;99262.00;;;;4875085;28;118354;-66
2024/03/24 07:17:15;;;;;;;2.17;1.27;;;7.30;99.90;7.30;99256.00;;;;4876506;28;88881;-64
2024/03/24 07:19:40;;;;;;;0.93;0.93;;;7.60;99.90;7.40;99259.00;;;;4874386;28;108348;-65
2024/03/24 07:22:07;;;;;;;2.67;1.20;;;7.60;99.90;7.60;99251.00;;;;4875545;28;117808;-65
2024/03/24 07:24:32;;;;;;;0.80;0.80;;;7.70;99.90;7.60;99242.00;;;;4879456;28;88783;-65
2024/03/24 07:26:58;;;;;;;1.17;1.03;;;7.70;99.90;7.40;99252.00;;;;4878606;28;110633;-64
2024/03/24 07:29:24;;;;;;;2.00;1.20;;;7.70;99.90;7.30;99241.00;;;;4877426;28;107511;-65
2024/03/24 07:31:49;;;;;;;1.57;1.37;;;7.60;99.90;7.30;99255.00;;;;4874227;28;117515;-65
2024/03/24 07:34:15;;;;;;;1.77;1.10;;;7.50;99.90;7.30;99248.00;;;;4872775;28;117706;-64
2024/03/24 07:36:41;;;;;;;2.40;1.20;;;7.50;99.90;7.30;99243.00;;;;4874240;28;110795;-64
2024/03/24 07:39:06;;;;;;;4.77;1.10;;;7.50;99.90;7.50;99236.00;;;;4876257;28;108059;-65
2024/03/24 07:41:32;;;;;;;2.10;1.03;;;7.60;99.90;7.80;99235.00;;;;4875818;28;117412;-65
2024/03/24 07:43:58;;;;;;;1.00;0.90;;;7.80;99.90;8.00;99238.00;;;;4874976;28;117969;-65
2024/03/24 07:46:23;;;;;;;1.13;0.93;;;8.10;99.90;8.20;99241.00;;;;4878707;28;109083;-65
2024/03/24 07:48:49;;;;;;;1.60;1.20;;;8.30;99.90;8.30;99251.00;;;;4877090;28;97802;-64
2024/03/24 07:51:15;;;;;;;1.03;0.87;;;8.40;99.90;8.30;99242.00;;;;4872696;28;118291;-65
2024/03/24 07:53:41;;;;;;;1.00;0.87;;;8.50;99.90;8.40;99240.00;;;;4869699;28;116228;-63
2024/03/24 07:56:07;;;;;;;3.60;1.33;;;8.50;99.90;8.50;99230.00;;;;4883803;28;87930;-63
2024/03/24 07:58:33;;;;;;;1.40;0.87;;;8.70;99.90;8.50;99236.00;;;;4877673;28;88122;-63
2024/03/24 08:00:59;;;;;;;1.20;0.80;;;8.70;99.90;8.50;99231.00;;;;4875447;28;112525;-64
2024/03/24 08:03:24;;;;;;;1.23;1.10;;;8.60;99.90;8.60;99225.00;;;;4875972;28;118621;-63
2024/03/24 08:05:53;;;;;;;3.43;1.13;;;8.80;99.90;8.80;99238.00;;;;4877607;28;99762;-65
2024/03/24 08:08:18;;;;;;;1.13;0.60;;;8.90;99.90;8.80;99253.00;;;;4874133;28;109130;-64
2024/03/24 08:10:44;;;;;;;1.27;1.00;;;8.90;99.90;8.70;99241.00;;;;4875020;28;116393;-65
2024/03/24 08:13:10;;;;;;;3.10;1.07;;;8.90;98.80;8.60;99235.00;;;;4875094;28;116364;-64
2024/03/24 08:15:36;;;;;;;0.80;0.50;;;8.80;99.00;8.70;99244.00;;;;4876063;28;87896;-64
2024/03/24 08:18:01;;;;;;;0.77;0.70;;;8.80;98.90;8.90;99235.00;;;;4872836;28;87176;-64
2024/03/24 08:20:28;;;;;;;0.60;0.60;;;9.00;98.70;9.20;99228.00;;;;4863140;28;88799;-64
2024/03/24 08:22:54;;;;;;;1.03;0.80;;;9.20;98.60;9.30;99235.00;;;;4865791;28;88996;-64
2024/03/24 08:25:20;;;;;;;1.30;0.83;;;9.50;98.40;9.60;99233.00;;;;4877147;28;88794;-65
2024/03/24 08:27:46;;;;;;;1.30;1.00;;;9.60;97.70;9.70;99231.00;;;;4877997;28;108187;-64
2024/03/24 08:30:12;;;;;;;1.57;1.10;;;9.80;96.60;9.80;99238.00;;;;4880809;28;117092;-64
2024/03/24 08:32:37;;;;;;;2.53;0.90;;;9.90;95.90;9.90;99221.00;;;;4875829;28;88144;-65
2024/03/24 08:35:04;;;;;;;0.90;0.70;;;10.00;95.70;9.80;99237.00;;;;4877984;28;108727;-64
2024/03/24 08:37:31;;;;;;;1.57;1.10;;;10.00;94.70;9.60;99225.00;;;;4876252;28;88052;-64
2024/03/24 08:39:56;;;;;;;1.10;0.90;;;9.80;94.60;9.50;99221.00;;;;4875781;28;97935;-64
2024/03/24 08:42:22;;;;;;;1.73;1.00;;;9.70;95.10;9.40;99231.00;;;;4877267;28;116733;-64
2024/03/24 08:44:48;;;;;;;1.40;1.03;;;9.60;95.50;9.30;99232.00;;;;4877434;28;88013;-64
2024/03/24 08:47:13;;;;;;;0.93;0.83;;;9.50;95.60;9.20;99234.00;;;;4877262;28;108059;-63
2024/03/24 08:49:39;;;;;;;1.30;1.20;;;9.50;95.50;9.20;99231.00;;;;4873899;28;120296;-64
2024/03/24 08:52:05;;;;;;;1.43;0.80;;;9.30;95.60;9.10;99238.00;;;;4872681;28;116791;-65
2024/03/24 08:54:31;;;;;;;0.90;0.50;;;9.30;96.10;9.10;99230.00;;;;4872790;28;87904;-64
2024/03/24 08:56:56;;;;;;;1.00;0.90;;;9.20;95.50;9.00;99227.00;;;;4878407;28;96597;-63
2024/03/24 08:59:22;;;;;;;0.97;0.70;;;9.70;95.90;9.00;99240.00;;;;4879394;28;118626;-63
2024/03/24 09:01:48;;;;;;;1.70;1.13;;;9.10;96.20;9.10;99235.00;;;;4876140;28;116263;-64
2024/03/24 09:04:14;;;;;;;1.30;0.93;;;9.20;96.20;9.00;99226.00;;;;4880023;28;101286;-66
2024/03/24 09:06:40;;;;;;;0.60;0.60;;;7.80;95.40;9.00;99226.00;;;;4876830;28;108973;-63
2024/03/24 09:09:05;;;;;;;1.43;0.70;;;9.20;96.10;9.00;99237.00;;;;4878607;28;117590;-64
2024/03/24 09:11:31;;;;;;;3.70;1.03;;;9.10;96.20;9.00;99230.00;;;;4879896;28;116132;-65
2024/03/24 09:13:56;;;;;;;1.27;1.17;;;9.60;96.50;9.00;99221.00;;;;4881916;28;109534;-64
2024/03/24 09:16:23;;;;;;;3.80;1.23;;;9.10;96.60;9.00;99228.00;;;;4880440;28;107855;-64
2024/03/24 09:18:48;;;;;;;1.63;0.90;;;9.10;95.90;8.90;99224.00;;;;4878356;28;89169;-63
2024/03/24 09:21:14;;;;;;;1.17;1.07;;;9.00;96.10;9.00;99222.00;;;;4881207;28;97799;-63
2024/03/24 09:23:40;;;;;;;5.30;1.47;;;9.00;96.40;9.10;99223.00;;;;4879573;28;110409;-63
2024/03/24 09:26:06;;;;;;;3.03;1.13;;;9.10;96.80;9.20;99220.00;;;;4880425;28;88034;-64
2024/03/24 09:28:32;;;;;;;7.00;1.10;;;9.20;97.10;9.30;99229.00;;;;4871051;28;117404;-63
2024/03/24 09:31:03;;;;;;;5.47;1.07;;;9.30;96.80;9.40;99224.00;;;;4875923;28;116481;-63
2024/03/24 09:33:29;;;;;;;1.40;1.00;;;9.40;95.80;9.40;99223.00;;;;4877050;28;101676;-63
2024/03/24 09:36:02;;;;;;;1.30;1.03;;;9.40;95.70;9.40;99222.00;;;;4880878;28;88706;-62
2024/03/24 09:38:28;;;;;;;0.90;0.90;;;9.50;95.70;9.40;99209.00;;;;4879957;28;95866;-63
2024/03/24 09:40:54;;;;;;;2.67;1.10;;;9.40;94.80;9.40;99210.00;;;;4882560;28;89085;-63
2024/03/24 09:43:21;;;;;;;2.60;1.53;;;9.50;94.50;9.30;99214.00;;;;4879875;28;94176;-63
2024/03/24 09:45:47;;;;;;;3.03;1.00;;;9.50;94.30;9.30;99210.00;;;;4882665;28;88114;-63
2024/03/24 09:48:15;;;;;;;1.47;0.73;;;9.40;94.30;9.30;99208.00;;;;4877557;28;117061;-63
2024/03/24 09:50:42;;;;;;;4.23;1.33;;;9.40;94.20;9.30;99219.00;;;;4876862;28;89009;-62
2024/03/24 09:53:09;;;;;;;1.10;0.90;;;10.00;94.20;9.50;99207.00;;;;4876555;28;96404;-63
2024/03/24 09:55:35;;;;;;;1.57;1.33;;;9.50;94.00;9.70;99206.00;;;;4886697;28;98480;-64
2024/03/24 09:58:02;;;;;;;0.80;0.60;;;9.70;94.00;10.10;99200.00;;;;4880462;28;88568;-63
2024/03/24 10:00:27;;;;;;;1.77;1.30;;;10.00;94.30;10.30;99200.00;;;;4878114;28;88281;-63
2024/03/24 10:02:54;;;;;;;2.13;1.03;;;10.20;94.00;10.60;99193.00;;;;4875895;28;110002;-64
2024/03/24 10:05:21;;;;;;;1.80;1.20;;;10.50;92.40;10.70;99196.00;;;;4875783;28;88025;-63
2024/03/24 10:07:48;;;;;;;1.47;0.80;;;10.70;91.70;10.70;99180.00;;;;4872794;28;87731;-63
2024/03/24 10:10:15;;;;;;;1.60;0.87;;;10.70;91.20;10.90;99180.00;;;;4878443;28;89439;-64
2024/03/24 10:12:57;;;;;;;1.23;0.87;;;10.80;91.10;11.00;99187.00;;;;4882664;28;87834;-66
2024/03/24 10:15:25;;;;;;;0.90;0.87;;;11.00;91.30;11.10;99199.00;;;;4879265;28;87743;-64
2024/03/24 10:18:11;;;;;;;1.10;1.00;;;11.10;91.30;11.10;99188.00;;;;4877700;28;88649;-65
2024/03/24 10:20:39;;;;;;;1.43;0.97;;;11.20;90.60;10.90;99190.00;;;;4875988;28;87238;-64
2024/03/24 10:23:05;;;;;;;0.87;0.70;;;11.00;89.70;10.70;99194.00;;;;4878030;28;88026;-64
2024/03/24 10:25:32;;;;;;;1.30;1.07;;;10.80;88.20;10.30;99186.00;;;;4884699;28;88131;-64
2024/03/24 10:27:59;;;;;;;5.10;1.27;;;10.60;87.90;10.10;99182.00;;;;4880013;28;110063;-65
2024/03/24 10:30:25;;;;;;;2.63;1.43;;;10.30;89.40;9.90;99177.00;;;;4876514;28;98278;-64
2024/03/24 10:32:52;;;;;;;2.03;1.13;;;10.10;90.50;9.70;99181.00;;;;4878502;28;91360;-64
2024/03/24 10:35:21;;;;;;;1.97;1.20;;;9.90;90.90;9.40;99176.00;;;;4882072;28;87964;-64
2024/03/24 10:37:47;;;;;;;2.00;0.93;;;9.60;90.60;9.20;99178.00;;;;4876338;28;88766;-64
2024/03/24 10:40:13;;;;;;;1.63;1.10;;;9.40;91.20;9.10;99169.00;;;;4877563;28;88326;-65
2024/03/24 10:42:47;;;;;;;2.50;1.13;;;9.30;91.10;9.00;99167.00;;;;4878755;28;111535;-64
2024/03/24 10:45:15;;;;;;;1.17;0.80;;;9.20;91.60;9.00;99174.00;;;;4880686;28;87242;-64
2024/03/24 10:47:42;;;;;;;3.17;0.90;;;9.10;92.00;8.90;99164.00;;;;4876767;28;89418;-63
2024/03/24 10:50:15;;;;;;;1.03;0.90;;;9.10;92.30;8.90;99160.00;;;;4878000;28;88293;-64
2024/03/24 10:52:46;;;;;;;1.03;0.70;;;9.00;92.10;8.80;99172.00;;;;4877920;28;88643;-63
2024/03/24 10:55:13;;;;;;;2.73;1.10;;;8.90;92.20;8.80;99168.00;;;;4878515;28;87957;-63
2024/03/24 10:57:45;;;;;;;3.13;1.83;;;8.90;92.50;8.80;99169.00;;;;4871569;28;89556;-65
2024/03/24 11:00:13;;;;;;;1.77;1.43;;;8.90;92.80;8.80;99165.00;;;;4873173;28;116717;-64